Terminal Aerodrome Forecast
Issued by NWS Bismarck, ND

Home | Current Version | Previous Version | Graphics & Text | Print | Product List | Glossary On
Versions: 1 2 3 4 5 6 7 8 9 10 11 12 13 14 15 16 17 18 19 20 21
000
FTUS43 KBIS 291043 AAA
TAFISN
TAF AMD
KISN 291043Z 2911/3006 00000KT 3/4SM BR SKC
      TEMPO 2911/2913 2SM BR
     FM291300 17005KT P6SM SCT035
     FM292100 20005KT P6SM SCT150=

USA.gov is the U.S. government's official web portal to all federal, state and local government web resources and services.